Time;durP1;ratioP1;P1;durP2;ratioP2;P2;SDS_P1;SDS_P2;PMS_P1;PMS_P2;Temp;Humidity;BMP_temperature;BMP_pressure;BME280_temperature;BME280_humidity;BME280_pressure;Samples;Min_cycle;Max_cycle;Signal;HPM_P1;HPM_P2
2022/01/27 00:05:56;;;;;;;26.00;9.98;;;6.80;99.90;;;;;;5146558;27;20042;-74
2022/01/27 00:08:36;;;;;;;24.90;9.98;;;6.40;99.90;;;;;;5123052;27;20047;-75
2022/01/27 00:11:09;;;;;;;25.23;10.65;;;6.30;99.90;;;;;;5148427;27;20098;-75
2022/01/27 00:13:43;;;;;;;29.40;11.35;;;6.40;99.90;;;;;;5120872;27;20058;-75
2022/01/27 00:16:13;;;;;;;25.30;11.38;;;6.60;99.90;;;;;;5150613;27;20085;-75
2022/01/27 00:18:40;;;;;;;26.08;11.05;;;7.40;99.90;;;;;;5127371;27;20071;-75
2022/01/27 00:21:06;;;;;;;28.70;12.40;;;7.00;99.90;;;;;;5121881;27;20035;-75
2022/01/27 00:23:33;;;;;;;30.45;11.48;;;6.60;99.90;;;;;;5112685;27;20401;-74
2022/01/27 00:26:00;;;;;;;30.45;12.10;;;6.40;99.90;;;;;;5140574;27;20046;-74
2022/01/27 00:28:26;;;;;;;;;;;6.40;99.90;;;;;;5148614;27;20038;-75
2022/01/27 00:30:51;;;;;;;27.25;10.73;;;6.40;99.90;;;;;;5145572;27;19926;-75
2022/01/27 00:33:17;;;;;;;22.23;11.53;;;6.40;99.90;;;;;;5145154;27;20039;-74
2022/01/27 00:35:43;;;;;;;25.30;11.77;;;7.20;99.90;;;;;;5147636;27;20296;-75
2022/01/27 00:38:08;;;;;;;28.17;11.98;;;6.30;99.90;;;;;;5138003;27;20284;-75
2022/01/27 00:40:34;;;;;;;32.10;12.32;;;6.40;99.90;;;;;;5148005;27;20154;-75
2022/01/27 00:43:00;;;;;;;28.13;11.75;;;6.30;99.90;;;;;;5119168;27;20046;-74
2022/01/27 00:45:29;;;;;;;29.25;11.75;;;6.40;99.90;;;;;;5124321;27;20704;-75
2022/01/27 00:47:55;;;;;;;25.38;11.82;;;6.30;99.90;;;;;;5140282;27;20051;-75
2022/01/27 00:50:21;;;;;;;31.02;11.90;;;;;;;;;;5131736;27;20133;-75
2022/01/27 00:52:52;;;;;;;27.60;11.45;;;6.30;99.90;;;;;;5128579;27;20114;-74
2022/01/27 00:55:18;;;;;;;27.45;12.25;;;6.30;99.90;;;;;;5118380;27;20050;-75
2022/01/27 01:00:23;;;;;;;32.78;12.70;;;7.00;99.90;;;;;;5142131;27;20031;-75
2022/01/27 01:02:55;;;;;;;26.73;12.63;;;6.30;99.90;;;;;;5126671;27;20363;-74
2022/01/27 01:07:50;;;;;;;29.25;12.45;;;6.30;99.90;;;;;;5139137;27;20095;-75
2022/01/27 01:15:36;;;;;;;31.15;14.30;;;6.40;99.90;;;;;;5146109;27;20483;-74
2022/01/27 01:18:17;;;;;;;30.27;13.15;;;6.20;99.90;;;;;;5104450;27;20466;-74
2022/01/27 01:21:01;;;;;;;31.67;13.15;;;6.20;99.90;;;;;;5135370;27;20035;-74
2022/01/27 01:31:54;;;;;;;25.48;12.90;;;6.10;99.90;;;;;;5140744;27;20404;-74
2022/01/27 01:34:24;;;;;;;30.35;13.48;;;6.10;99.90;;;;;;5125720;27;20047;-74
2022/01/27 01:39:22;;;;;;;26.02;13.00;;;6.20;99.90;;;;;;5148754;27;20063;-74
2022/01/27 01:41:48;;;;;;;25.30;12.68;;;6.20;99.90;;;;;;5140434;27;20118;-74
2022/01/27 01:44:14;;;;;;;32.65;14.52;;;6.60;99.90;;;;;;5117071;27;20035;-74
2022/01/27 01:46:40;;;;;;;31.27;14.60;;;6.10;99.90;;;;;;5145678;27;20030;-74
2022/01/27 01:49:06;;;;;;;31.85;14.40;;;6.00;99.90;;;;;;5116979;27;20054;-75
2022/01/27 01:51:33;;;;;;;26.20;13.70;;;6.00;99.90;;;;;;5099033;27;20050;-74
2022/01/27 01:53:59;;;;;;;29.85;14.07;;;6.00;99.90;;;;;;5127146;27;20050;-75
2022/01/27 01:56:25;;;;;;;33.45;15.20;;;6.00;99.90;;;;;;5140494;27;20042;-74
2022/01/27 01:58:51;;;;;;;31.30;14.15;;;6.00;99.90;;;;;;5122637;27;20043;-74
2022/01/27 02:01:18;;;;;;;34.10;14.95;;;5.30;99.90;;;;;;5122649;27;20042;-75
2022/01/27 02:03:45;;;;;;;33.80;15.70;;;6.30;99.90;;;;;;5138607;27;20110;-74
2022/01/27 02:06:20;;;;;;;34.40;14.75;;;7.20;99.90;;;;;;5122705;27;20489;-75
2022/01/27 02:09:19;;;;;;;27.33;13.50;;;6.00;99.90;;;;;;5141319;27;20370;-74
2022/01/27 02:19:53;;;;;;;31.30;14.77;;;6.00;99.90;;;;;;5148366;27;20081;-74
2022/01/27 02:22:20;;;;;;;35.50;15.30;;;6.20;99.90;;;;;;5137613;27;20390;-74
2022/01/27 02:24:46;;;;;;;31.67;15.43;;;6.20;99.90;;;;;;5117412;27;20038;-75
2022/01/27 02:27:13;;;;;;;;;;;6.00;99.90;;;;;;5118130;27;21413;-74
2022/01/27 02:29:40;;;;;;;32.60;16.23;;;6.40;99.90;;;;;;5114539;27;19922;-74
2022/01/27 02:32:07;;;;;;;30.85;14.48;;;6.00;99.90;;;;;;5140558;27;20272;-74
2022/01/27 02:34:33;;;;;;;32.15;14.88;;;6.10;99.90;;;;;;5135473;27;20108;-74
2022/01/27 02:36:59;;;;;;;;;;;6.40;99.90;;;;;;5135497;27;20042;-74
2022/01/27 02:39:25;;;;;;;34.10;16.00;;;6.10;99.90;;;;;;5137075;27;19915;-75
2022/01/27 02:41:54;;;;;;;;;;;6.20;99.90;;;;;;5143803;27;20035;-75
2022/01/27 02:44:38;;;;;;;31.45;16.58;;;6.20;99.90;;;;;;5140253;27;19922;-74
2022/01/27 02:47:04;;;;;;;35.38;16.63;;;6.20;99.90;;;;;;5138918;27;20088;-74
2022/01/27 02:49:30;;;;;;;33.13;16.02;;;6.20;99.90;;;;;;5135978;27;20041;-74
2022/01/27 02:51:56;;;;;;;29.48;13.55;;;6.20;99.90;;;;;;5134219;27;20035;-74
2022/01/27 02:54:22;;;;;;;30.45;15.10;;;6.20;99.90;;;;;;5105907;27;20038;-74
2022/01/27 02:56:48;;;;;;;32.15;15.57;;;6.20;99.90;;;;;;5137966;27;20057;-74
2022/01/27 02:59:16;;;;;;;37.15;17.20;;;6.30;99.90;;;;;;5126106;27;20045;-74
2022/01/27 03:01:47;;;;;;;32.53;16.42;;;6.70;99.90;;;;;;5121443;27;20127;-74
2022/01/27 03:04:12;;;;;;;33.08;16.30;;;6.40;99.90;;;;;;5121266;27;20035;-74
2022/01/27 03:06:38;;;;;;;35.30;16.63;;;6.40;99.90;;;;;;5142465;27;20035;-75
2022/01/27 03:09:04;;;;;;;35.83;16.25;;;6.20;99.90;;;;;;5122079;27;20497;-74
2022/01/27 03:11:45;;;;;;;36.85;16.20;;;6.20;99.90;;;;;;5140550;27;20111;-74
2022/01/27 03:14:12;;;;;;;33.75;16.30;;;6.20;99.90;;;;;;5143635;27;20046;-75
2022/01/27 03:16:38;;;;;;;37.15;16.95;;;6.20;99.90;;;;;;5135559;27;20034;-74
2022/01/27 03:19:04;;;;;;;39.92;17.55;;;6.20;99.90;;;;;;5145584;27;20034;-75
2022/01/27 03:21:30;;;;;;;36.47;17.33;;;6.20;99.90;;;;;;5119035;27;20095;-74
2022/01/27 03:23:56;;;;;;;35.95;16.55;;;6.20;99.90;;;;;;5135170;27;20071;-74
2022/01/27 03:26:22;;;;;;;34.88;16.63;;;6.30;99.90;;;;;;5136821;27;20103;-75
2022/01/27 03:28:48;;;;;;;34.05;15.32;;;6.30;99.90;;;;;;5122120;28;20049;-74
2022/01/27 03:31:15;;;;;;;35.40;15.52;;;7.40;99.90;;;;;;5122085;27;20030;-75
2022/01/27 03:33:42;;;;;;;36.60;15.60;;;6.60;99.90;;;;;;5121552;27;20038;-75
2022/01/27 03:36:08;;;;;;;35.53;15.75;;;6.30;99.90;;;;;;5143083;27;20497;-74
2022/01/27 03:38:34;;;;;;;36.28;15.48;;;7.50;99.90;;;;;;5139534;27;20137;-75
2022/01/27 03:41:04;;;;;;;34.38;16.35;;;7.00;99.90;;;;;;5148153;27;20557;-74
2022/01/27 03:43:30;;;;;;;35.65;15.15;;;6.40;99.90;;;;;;5132542;27;20043;-74
2022/01/27 03:45:56;;;;;;;32.63;14.50;;;6.60;99.90;;;;;;5124190;27;20051;-74
2022/01/27 03:48:21;;;;;;;35.17;16.48;;;6.90;99.90;;;;;;5119164;27;20042;-74
2022/01/27 03:50:47;;;;;;;35.70;16.92;;;6.40;99.90;;;;;;5148021;27;20405;-74
2022/01/27 03:53:14;;;;;;;31.75;14.38;;;7.20;99.90;;;;;;5146094;27;20070;-74
2022/01/27 03:55:41;;;;;;;33.83;15.23;;;6.40;99.90;;;;;;5117239;27;20039;-74
2022/01/27 03:58:07;;;;;;;30.60;15.30;;;6.10;99.90;;;;;;5142085;27;20045;-75
2022/01/27 04:00:33;;;;;;;40.72;16.02;;;6.40;99.90;;;;;;5145112;27;20692;-74
2022/01/27 04:03:05;;;;;;;32.35;14.50;;;6.40;99.90;;;;;;5138559;27;20046;-75
2022/01/27 04:05:37;;;;;;;37.35;15.95;;;6.40;99.90;;;;;;5127272;27;20043;-75
2022/01/27 04:08:07;;;;;;;33.88;15.02;;;6.90;99.90;;;;;;5127568;27;20050;-75
2022/01/27 04:10:33;;;;;;;32.60;15.23;;;6.40;99.90;;;;;;5148592;27;20038;-75
2022/01/27 04:12:59;;;;;;;33.40;14.63;;;6.20;99.90;;;;;;5148540;27;20095;-75
2022/01/27 04:15:25;;;;;;;35.75;14.77;;;7.20;99.90;;;;;;5126177;27;20045;-74
2022/01/27 04:17:52;;;;;;;36.33;15.00;;;6.50;99.90;;;;;;5138198;27;20031;-74
2022/01/27 04:20:18;;;;;;;;;;;6.50;99.90;;;;;;5139469;27;20056;-74
2022/01/27 04:22:44;;;;;;;35.13;14.95;;;6.60;99.90;;;;;;5141932;27;19915;-74
2022/01/27 04:25:11;;;;;;;36.28;15.52;;;7.10;99.90;;;;;;5138149;27;20031;-74
2022/01/27 04:27:40;;;;;;;34.83;13.55;;;6.50;99.90;;;;;;5142828;27;20406;-74
2022/01/27 04:30:11;;;;;;;32.35;14.43;;;7.70;99.90;;;;;;5144819;27;20125;-74
2022/01/27 04:32:43;;;;;;;35.22;14.52;;;6.50;99.90;;;;;;5126338;27;20117;-75
2022/01/27 04:35:15;;;;;;;33.53;14.23;;;6.40;99.90;;;;;;5119066;27;20071;-74
2022/01/27 04:37:57;;;;;;;36.40;14.93;;;6.40;99.90;;;;;;5148911;27;20055;-75
2022/01/27 04:40:33;;;;;;;33.13;14.18;;;7.80;99.90;;;;;;5136372;27;20104;-75
2022/01/27 04:45:39;;;;;;;28.98;12.95;;;6.40;99.90;;;;;;5138134;27;20037;-75
2022/01/27 04:48:11;;;;;;;29.60;14.68;;;7.10;99.90;;;;;;5145452;27;20043;-75
2022/01/27 04:50:38;;;;;;;36.53;15.68;;;6.50;99.90;;;;;;5138996;27;20043;-75
2022/01/27 04:53:06;;;;;;;;;;;6.40;99.90;;;;;;5145244;27;20129;-75
2022/01/27 04:55:32;;;;;;;37.42;14.13;;;6.30;99.90;;;;;;5130603;27;20412;-75
2022/01/27 04:58:08;;;;;;;38.78;14.82;;;6.50;99.90;;;;;;5146595;27;20058;-75
2022/01/27 05:00:34;;;;;;;34.17;14.50;;;6.30;99.90;;;;;;5130496;27;20042;-75
2022/01/27 05:03:03;;;;;;;31.60;14.20;;;6.30;99.90;;;;;;5143958;27;20035;-75
2022/01/27 05:05:28;;;;;;;37.28;14.70;;;6.30;99.90;;;;;;5106609;27;20038;-75
2022/01/27 05:07:58;;;;;;;33.88;14.55;;;6.30;99.90;;;;;;5121484;27;20379;-75
2022/01/27 05:10:28;;;;;;;32.75;14.35;;;6.70;99.90;;;;;;5127105;27;20141;-75
2022/01/27 05:13:01;;;;;;;32.60;13.23;;;6.30;99.90;;;;;;5144987;27;20042;-75
2022/01/27 05:15:28;;;;;;;43.28;15.95;;;6.30;99.90;;;;;;5139672;27;20098;-74
2022/01/27 05:17:54;;;;;;;42.00;16.20;;;6.60;99.90;;;;;;5102608;27;20543;-75
2022/01/27 05:20:19;;;;;;;38.10;14.73;;;6.20;99.90;;;;;;5129066;27;20051;-74
2022/01/27 05:22:45;;;;;;;38.47;15.23;;;6.30;99.90;;;;;;5131840;27;20799;-74
2022/01/27 05:25:11;;;;;;;40.08;15.15;;;7.20;99.90;;;;;;5126483;27;21533;-75
2022/01/27 05:27:37;;;;;;;36.33;15.10;;;7.00;99.90;;;;;;5127503;27;20043;-75
2022/01/27 05:30:03;;;;;;;41.95;15.73;;;6.30;99.90;;;;;;5150007;27;20397;-75
2022/01/27 05:32:29;;;;;;;;;;;6.20;99.90;;;;;;5124119;27;20047;-75
2022/01/27 05:34:54;;;;;;;40.08;15.55;;;6.20;99.90;;;;;;5141643;27;20394;-75
2022/01/27 05:37:20;;;;;;;42.97;16.70;;;6.60;99.90;;;;;;5126054;27;20039;-83
2022/01/27 05:39:46;;;;;;;48.30;15.77;;;6.20;99.90;;;;;;5145074;27;20051;-82
2022/01/27 05:42:12;;;;;;;40.92;15.77;;;6.20;99.90;;;;;;5129100;27;20043;-83
2022/01/27 05:44:37;;;;;;;42.17;15.07;;;6.20;99.90;;;;;;5121476;27;20030;-85
2022/01/27 05:47:03;;;;;;;40.07;14.50;;;6.20;99.90;;;;;;5105396;27;20047;-83
2022/01/27 05:49:29;;;;;;;41.08;15.77;;;6.20;99.90;;;;;;5114843;27;20289;-82
2022/01/27 05:51:55;;;;;;;46.85;15.73;;;6.20;99.90;;;;;;5102815;27;20038;-83
2022/01/27 05:54:21;;;;;;;46.75;16.27;;;6.30;99.90;;;;;;5125394;27;20039;-80
2022/01/27 05:56:46;;;;;;;45.13;16.13;;;6.30;99.90;;;;;;5116758;27;20078;-80
2022/01/27 05:59:12;;;;;;;40.80;15.77;;;6.20;99.90;;;;;;5121758;27;20062;-80
2022/01/27 06:01:38;;;;;;;37.53;16.83;;;6.50;99.90;;;;;;5104230;27;20336;-80
2022/01/27 06:04:06;;;;;;;39.60;15.73;;;6.30;99.90;;;;;;5124155;27;20035;-79
2022/01/27 06:06:31;;;;;;;41.13;14.95;;;6.30;99.90;;;;;;5123923;27;20287;-79
2022/01/27 06:08:57;;;;;;;41.90;15.90;;;6.30;99.90;;;;;;5124019;27;20043;-80
2022/01/27 06:11:23;;;;;;;36.97;14.30;;;6.30;99.90;;;;;;5106410;27;20280;-79
2022/01/27 06:13:48;;;;;;;49.65;16.25;;;6.30;99.90;;;;;;5124780;27;20074;-80
2022/01/27 06:16:14;;;;;;;40.70;16.42;;;6.30;99.90;;;;;;5106783;27;20038;-80
2022/01/27 06:18:41;;;;;;;35.25;14.70;;;6.30;99.90;;;;;;5106656;27;20844;-79
2022/01/27 06:21:07;;;;;;;39.22;15.52;;;6.30;99.90;;;;;;5121714;27;20035;-79
2022/01/27 06:23:33;;;;;;;38.83;14.48;;;6.40;99.90;;;;;;5123874;27;20039;-79
2022/01/27 06:26:00;;;;;;;35.08;13.85;;;6.40;99.90;;;;;;5123832;27;20043;-79
2022/01/27 06:28:26;;;;;;;35.95;14.27;;;6.40;99.90;;;;;;5124273;27;20035;-79
2022/01/27 06:30:52;;;;;;;34.30;12.57;;;6.60;99.90;;;;;;5121643;27;20039;-79
2022/01/27 06:33:17;;;;;;;37.97;15.68;;;6.40;99.90;;;;;;5127025;27;20285;-79
2022/01/27 06:35:43;;;;;;;35.08;13.30;;;6.60;99.90;;;;;;5124297;27;20098;-79
2022/01/27 06:38:09;;;;;;;32.65;12.18;;;6.50;99.90;;;;;;5122647;27;20130;-79
2022/01/27 06:40:35;;;;;;;38.00;13.50;;;6.50;99.90;;;;;;5118034;27;20444;-79
2022/01/27 06:43:01;;;;;;;;;;;6.60;99.90;;;;;;5118891;27;21674;-79
2022/01/27 06:45:27;;;;;;;27.17;11.55;;;6.60;99.90;;;;;;5120139;27;20010;-79
2022/01/27 06:47:53;;;;;;;30.75;12.45;;;6.90;99.90;;;;;;5118794;27;20054;-80
2022/01/27 06:50:19;;;;;;;29.30;11.90;;;6.70;99.90;;;;;;5106337;28;20040;-80
2022/01/27 06:52:45;;;;;;;33.55;12.93;;;6.70;99.90;;;;;;5118378;28;20039;-80
2022/01/27 06:55:12;;;;;;;29.95;11.55;;;6.70;99.90;;;;;;5118091;28;20487;-80
2022/01/27 06:57:37;;;;;;;32.92;12.60;;;6.80;99.90;;;;;;5121940;28;20035;-80
2022/01/27 07:00:08;;;;;;;27.50;12.02;;;6.80;99.90;;;;;;5120442;28;20046;-80
2022/01/27 07:02:34;;;;;;;24.88;11.07;;;6.70;99.90;;;;;;5118622;28;20038;-80
2022/01/27 07:05:00;;;;;;;31.98;11.75;;;6.70;99.90;;;;;;5119642;28;20658;-80
2022/01/27 07:07:26;;;;;;;31.92;11.82;;;6.80;99.90;;;;;;5086219;28;20536;-81
2022/01/27 07:09:51;;;;;;;33.88;12.90;;;6.80;99.90;;;;;;5124257;28;20402;-80
2022/01/27 07:12:17;;;;;;;32.55;12.48;;;6.70;99.90;;;;;;5107018;28;20528;-81
2022/01/27 07:14:43;;;;;;;25.67;10.93;;;6.70;99.90;;;;;;5105460;28;20039;-80
2022/01/27 07:17:08;;;;;;;32.33;12.55;;;6.70;99.90;;;;;;5103084;28;20070;-80
2022/01/27 07:19:34;;;;;;;29.42;11.57;;;6.80;99.90;;;;;;5103144;28;20047;-81
2022/01/27 07:22:00;;;;;;;25.13;10.65;;;6.90;99.90;;;;;;5120152;28;20039;-81
2022/01/27 07:24:26;;;;;;;27.85;10.07;;;6.80;99.90;;;;;;5117764;27;20093;-81
2022/01/27 07:26:52;;;;;;;27.13;10.73;;;6.80;99.90;;;;;;5124413;27;20047;-81
2022/01/27 07:29:17;;;;;;;30.90;12.00;;;7.40;99.90;;;;;;5122227;27;20035;-81
2022/01/27 07:31:43;;;;;;;32.33;11.95;;;6.90;99.90;;;;;;5124017;27;20042;-80
2022/01/27 07:34:09;;;;;;;29.23;10.45;;;6.90;99.90;;;;;;5123190;27;20066;-81
2022/01/27 07:36:35;;;;;;;25.92;11.15;;;6.90;99.90;;;;;;5128816;27;20379;-81
2022/01/27 07:39:01;;;;;;;25.75;10.23;;;7.00;99.90;;;;;;5122409;27;20358;-81
2022/01/27 07:41:27;;;;;;;30.65;11.18;;;7.00;99.90;;;;;;5125239;27;20092;-81
2022/01/27 07:43:53;;;;;;;24.08;10.52;;;7.00;99.90;;;;;;5125569;27;20039;-81
2022/01/27 07:46:18;;;;;;;26.00;9.65;;;7.00;99.90;;;;;;5123449;27;20111;-81
2022/01/27 07:48:44;;;;;;;28.80;11.20;;;7.50;99.90;;;;;;5125029;27;20038;-82
2022/01/27 07:51:11;;;;;;;31.77;12.50;;;7.10;99.90;;;;;;5122952;27;20066;-82
2022/01/27 07:53:38;;;;;;;34.90;10.32;;;7.10;99.90;;;;;;5124133;27;20039;-81
2022/01/27 07:56:04;;;;;;;33.85;11.27;;;7.10;99.90;;;;;;5124099;27;20034;-82
2022/01/27 07:58:31;;;;;;;30.92;11.43;;;7.10;99.90;;;;;;5126491;27;20096;-82
2022/01/27 08:00:58;;;;;;;31.15;10.77;;;7.20;99.90;;;;;;5120917;27;20039;-82
2022/01/27 08:03:23;;;;;;;30.63;11.73;;;7.10;99.90;;;;;;5116657;27;20094;-81
2022/01/27 08:05:50;;;;;;;27.33;10.68;;;7.10;99.90;;;;;;5123759;27;20480;-82
2022/01/27 08:08:16;;;;;;;35.95;11.40;;;7.20;99.90;;;;;;5125308;27;20046;-82
2022/01/27 08:10:41;;;;;;;35.42;11.20;;;7.20;99.90;;;;;;5123483;27;20387;-82
2022/01/27 08:13:08;;;;;;;29.15;10.85;;;7.30;99.90;;;;;;5107306;27;20035;-82
2022/01/27 08:15:34;;;;;;;27.75;10.30;;;7.30;99.90;;;;;;5124151;27;20075;-82
2022/01/27 08:18:00;;;;;;;31.13;10.68;;;7.40;99.90;;;;;;5122149;27;20657;-82
2022/01/27 08:20:26;;;;;;;31.48;10.05;;;7.30;99.90;;;;;;5104076;28;20042;-82
2022/01/27 08:22:53;;;;;;;29.20;9.85;;;7.40;99.90;;;;;;5122699;27;20044;-82
2022/01/27 08:25:21;;;;;;;30.23;8.95;;;7.30;99.90;;;;;;5126371;27;20441;-81
2022/01/27 08:27:49;;;;;;;25.55;8.82;;;7.40;99.90;;;;;;5105055;27;20047;-82
2022/01/27 08:30:17;;;;;;;25.50;9.13;;;7.40;99.90;;;;;;5124391;27;20063;-82
2022/01/27 08:32:57;;;;;;;27.50;8.80;;;7.40;99.90;;;;;;5121323;27;20491;-81
2022/01/27 08:35:23;;;;;;;28.65;8.07;;;7.50;99.90;;;;;;5154402;27;20095;-82
2022/01/27 08:37:49;;;;;;;21.67;7.90;;;7.50;99.90;;;;;;5122355;27;20450;-82
2022/01/27 08:40:16;;;;;;;27.10;8.38;;;7.70;99.90;;;;;;5122903;27;20036;-81
2022/01/27 08:42:43;;;;;;;23.75;7.40;;;7.60;99.90;;;;;;5107922;27;20031;-81
2022/01/27 08:45:11;;;;;;;28.67;8.25;;;7.60;99.90;;;;;;5104296;27;20032;-81
2022/01/27 08:47:37;;;;;;;25.05;7.25;;;7.50;99.90;;;;;;5125611;27;20070;-81
2022/01/27 08:50:05;;;;;;;24.20;8.25;;;7.60;99.90;;;;;;5125605;27;20038;-81
2022/01/27 08:52:31;;;;;;;21.67;7.28;;;7.60;99.90;;;;;;5089357;27;20552;-82
2022/01/27 08:54:57;;;;;;;23.80;6.80;;;7.60;99.90;;;;;;5101034;27;20512;-82
2022/01/27 08:57:22;;;;;;;25.45;7.68;;;7.60;99.90;;;;;;5124859;27;20043;-81
2022/01/27 08:59:49;;;;;;;19.90;6.37;;;7.70;99.90;;;;;;5105269;27;20036;-81
2022/01/27 09:02:14;;;;;;;;;;;7.70;99.90;;;;;;5125739;27;20402;-81
2022/01/27 09:04:40;;;;;;;18.35;5.80;;;7.80;99.90;;;;;;5124927;27;19920;-81
2022/01/27 09:07:06;;;;;;;21.33;6.43;;;7.70;99.90;;;;;;5104950;27;20043;-81
2022/01/27 09:09:32;;;;;;;20.45;6.55;;;7.70;99.90;;;;;;5123463;27;20378;-81
2022/01/27 09:11:59;;;;;;;28.20;6.53;;;7.70;99.90;;;;;;5108133;27;20046;-81
2022/01/27 09:14:29;;;;;;;25.80;6.30;;;7.70;99.90;;;;;;5105279;27;20082;-81
2022/01/27 09:16:56;;;;;;;22.42;6.00;;;7.70;99.90;;;;;;5104650;27;20039;-81
2022/01/27 09:19:26;;;;;;;18.92;6.05;;;7.90;99.90;;;;;;5122371;27;20047;-81
2022/01/27 09:21:54;;;;;;;19.15;5.38;;;7.70;99.90;;;;;;5120453;27;20486;-81
2022/01/27 09:24:27;;;;;;;20.33;5.45;;;7.70;99.90;;;;;;5125328;27;20433;-81
2022/01/27 09:26:59;;;;;;;28.67;6.03;;;7.80;99.90;;;;;;5102197;27;20039;-81
2022/01/27 09:29:26;;;;;;;17.60;5.35;;;7.80;99.90;;;;;;5119967;27;20047;-81
2022/01/27 09:31:52;;;;;;;15.10;5.68;;;7.90;99.90;;;;;;5120011;27;20049;-80
2022/01/27 09:34:19;;;;;;;21.48;5.35;;;8.00;99.90;;;;;;5107977;27;20549;-81
2022/01/27 09:36:55;;;;;;;20.00;5.30;;;7.90;99.90;;;;;;5120055;27;20043;-81
2022/01/27 09:39:22;;;;;;;18.77;4.90;;;8.00;99.90;;;;;;5115731;27;20551;-81
2022/01/27 09:41:52;;;;;;;20.17;4.93;;;8.00;99.90;;;;;;5123164;27;20172;-81
2022/01/27 09:44:20;;;;;;;19.33;5.00;;;8.00;99.90;;;;;;5121939;27;20038;-81
2022/01/27 09:46:46;;;;;;;24.67;5.65;;;8.00;99.90;;;;;;5107617;27;20036;-81
2022/01/27 09:49:19;;;;;;;18.17;4.40;;;8.00;99.90;;;;;;5103447;27;20043;-81
2022/01/27 09:51:46;;;;;;;18.27;5.07;;;8.00;99.90;;;;;;5121597;27;20035;-81
2022/01/27 09:54:14;;;;;;;15.73;4.38;;;8.00;99.90;;;;;;5104275;27;20043;-81
2022/01/27 09:56:41;;;;;;;20.17;5.63;;;8.10;99.90;;;;;;5123855;27;20122;-81
2022/01/27 09:59:08;;;;;;;20.73;4.97;;;8.10;99.90;;;;;;5121033;27;20042;-81
2022/01/27 10:01:35;;;;;;;21.88;5.15;;;8.10;99.90;;;;;;5096133;28;20035;-81
2022/01/27 10:04:05;;;;;;;20.17;4.53;;;8.20;99.90;;;;;;5123967;27;20039;-81
2022/01/27 10:06:33;;;;;;;14.30;5.28;;;8.20;99.90;;;;;;5120594;27;20409;-81
2022/01/27 10:09:16;;;;;;;20.50;5.53;;;8.20;99.90;;;;;;5120830;27;20050;-81
2022/01/27 10:11:47;;;;;;;19.95;5.20;;;8.20;99.90;;;;;;5118657;27;20045;-81
2022/01/27 10:14:25;;;;;;;21.20;4.70;;;8.20;99.90;;;;;;5121091;27;20046;-81
2022/01/27 10:16:54;;;;;;;17.52;4.63;;;8.20;99.90;;;;;;5121874;27;20474;-81
2022/01/27 10:19:21;;;;;;;26.70;4.38;;;8.30;99.90;;;;;;5122135;27;20047;-81
2022/01/27 10:21:47;;;;;;;21.60;4.93;;;8.30;99.90;;;;;;5116378;27;20082;-81
2022/01/27 10:24:19;;;;;;;22.58;4.85;;;8.30;99.90;;;;;;5118304;27;20035;-81
2022/01/27 10:26:54;;;;;;;16.58;4.18;;;8.30;99.90;;;;;;5120817;27;20135;-81
2022/01/27 10:29:47;;;;;;;18.33;4.18;;;8.30;99.90;;;;;;5104478;27;20047;-81
2022/01/27 10:32:13;;;;;;;14.85;3.55;;;8.30;99.90;;;;;;5119665;27;20039;-81
2022/01/27 10:35:01;;;;;;;14.45;4.13;;;8.30;99.90;;;;;;5103704;28;20089;-81
2022/01/27 10:37:27;;;;;;;18.50;4.07;;;8.40;99.90;;;;;;5120038;27;20041;-81
2022/01/27 10:39:53;;;;;;;14.25;4.60;;;8.50;99.90;;;;;;5120459;27;20126;-81
2022/01/27 10:42:23;;;;;;;26.15;4.95;;;8.60;99.90;;;;;;5103360;28;20066;-81
2022/01/27 10:44:56;;;;;;;14.32;4.28;;;8.60;99.90;;;;;;5123334;27;20088;-81
2022/01/27 10:47:29;;;;;;;18.48;4.40;;;8.70;99.90;;;;;;5101963;28;20086;-81
2022/01/27 10:50:04;;;;;;;16.30;4.15;;;8.70;99.90;;;;;;5122140;28;20078;-81
2022/01/27 10:55:04;;;;;;;22.75;5.00;;;8.80;99.90;;;;;;5122565;28;20146;-82
2022/01/27 10:57:29;;;;;;;20.20;4.35;;;8.80;99.90;;;;;;5123197;28;20035;-81
2022/01/27 11:00:14;;;;;;;16.80;4.32;;;8.80;99.90;;;;;;5123949;27;20431;-81
2022/01/27 11:03:02;;;;;;;16.10;3.65;;;8.80;99.90;;;;;;5119800;27;20455;-81
2022/01/27 11:05:30;;;;;;;19.23;4.22;;;8.90;99.90;;;;;;5103726;28;20037;-81
2022/01/27 11:07:57;;;;;;;14.65;3.67;;;8.90;99.90;;;;;;5110791;27;20047;-81
2022/01/27 11:10:23;;;;;;;18.35;3.90;;;8.90;99.90;;;;;;5124842;27;20039;-81
2022/01/27 11:12:50;;;;;;;17.02;4.20;;;8.90;99.90;;;;;;5125034;27;20046;-81
2022/01/27 11:15:18;;;;;;;11.25;2.75;;;8.90;99.90;;;;;;5122218;27;20110;-81
2022/01/27 11:17:46;;;;;;;16.58;3.50;;;9.00;99.90;;;;;;5121781;27;20106;-81
2022/01/27 11:20:33;;;;;;;15.52;4.65;;;9.00;99.90;;;;;;5124220;27;20118;-82
2022/01/27 11:28:01;;;;;;;19.27;3.88;;;9.10;99.90;;;;;;5123133;27;20046;-81
2022/01/27 11:30:39;;;;;;;18.23;3.33;;;9.00;99.90;;;;;;5105512;28;20114;-81
2022/01/27 11:33:14;;;;;;;19.73;3.60;;;9.00;99.90;;;;;;5118009;27;20046;-81
2022/01/27 11:35:41;;;;;;;20.40;3.90;;;9.00;99.90;;;;;;5102801;28;20594;-81
2022/01/27 11:38:08;;;;;;;17.52;3.97;;;9.00;99.90;;;;;;5115900;27;20083;-81
2022/01/27 11:40:41;;;;;;;20.38;3.67;;;9.00;99.90;;;;;;5122128;27;20492;-81
2022/01/27 11:43:10;;;;;;;16.55;3.58;;;9.10;99.90;;;;;;5123777;27;20031;-81
2022/01/27 11:45:36;;;;;;;14.38;3.25;;;9.10;99.90;;;;;;5121371;27;20042;-81
2022/01/27 11:48:10;;;;;;;16.70;2.97;;;9.10;99.90;;;;;;5121785;27;20428;-81
2022/01/27 11:50:49;;;;;;;18.48;3.90;;;9.10;99.90;;;;;;5126275;27;20034;-81
2022/01/27 11:53:44;;;;;;;16.83;3.05;;;9.10;99.90;;;;;;5119423;27;20092;-81
2022/01/27 11:56:28;;;;;;;16.50;2.80;;;9.10;99.90;;;;;;5113478;27;20410;-81
2022/01/27 11:59:01;;;;;;;16.98;2.97;;;9.20;99.90;;;;;;5119393;27;20034;-81
2022/01/27 12:01:37;;;;;;;19.20;3.10;;;9.10;99.90;;;;;;5122610;27;20048;-81
2022/01/27 12:04:06;;;;;;;13.65;3.22;;;9.10;99.90;;;;;;5122288;27;20701;-81
2022/01/27 12:06:34;;;;;;;16.85;4.13;;;9.10;99.90;;;;;;5121110;27;20114;-80
2022/01/27 12:09:18;;;;;;;22.67;3.00;;;9.00;99.90;;;;;;5125107;27;20035;-81
2022/01/27 12:11:56;;;;;;;20.08;3.22;;;9.10;99.90;;;;;;5119003;27;20050;-81
2022/01/27 12:14:26;;;;;;;17.95;3.83;;;9.00;99.90;;;;;;5119426;27;20464;-81
2022/01/27 12:17:07;;;;;;;19.17;3.20;;;9.00;99.90;;;;;;5106196;27;20044;-80
2022/01/27 12:19:56;;;;;;;12.55;3.10;;;9.00;99.90;;;;;;5123999;27;20084;-80
2022/01/27 12:22:49;;;;;;;14.38;2.85;;;9.00;99.90;;;;;;5117860;27;20066;-80
2022/01/27 12:25:16;;;;;;;19.33;3.15;;;9.00;99.90;;;;;;5121765;27;20066;-81
2022/01/27 12:27:50;;;;;;;15.38;2.78;;;9.00;99.90;;;;;;5118405;27;20031;-80
2022/01/27 12:30:16;;;;;;;18.92;3.88;;;9.10;99.90;;;;;;5105903;27;20092;-81
2022/01/27 12:32:42;;;;;;;20.83;3.72;;;9.00;99.90;;;;;;5122138;27;20377;-80
2022/01/27 12:35:13;;;;;;;22.23;3.47;;;9.10;99.90;;;;;;5123152;27;20188;-81
2022/01/27 12:37:46;;;;;;;16.98;3.75;;;9.10;99.90;;;;;;5121645;27;20140;-80
2022/01/27 12:40:26;;;;;;;25.48;3.85;;;9.10;99.90;;;;;;5111665;27;20046;-81
2022/01/27 12:42:59;;;;;;;21.25;3.75;;;9.00;99.90;;;;;;5128307;27;20394;-81
2022/01/27 12:45:28;;;;;;;14.18;3.00;;;9.00;99.90;;;;;;5120760;27;20038;-81
2022/01/27 12:48:00;;;;;;;18.05;3.38;;;9.10;99.90;;;;;;5111859;27;20039;-81
2022/01/27 12:50:28;;;;;;;21.17;3.22;;;9.10;99.90;;;;;;5126530;27;20038;-81
2022/01/27 12:53:02;;;;;;;14.70;3.05;;;9.10;99.90;;;;;;5125357;27;20495;-81
2022/01/27 12:55:33;;;;;;;15.50;2.72;;;9.10;99.90;;;;;;5143521;27;20031;-81
2022/01/27 12:58:02;;;;;;;19.02;3.10;;;9.10;99.90;;;;;;5125937;27;20107;-82
2022/01/27 13:00:35;;;;;;;19.02;3.03;;;9.20;99.90;;;;;;5123363;27;20072;-81
2022/01/27 13:03:02;;;;;;;13.15;2.78;;;9.30;99.90;;;;;;5121779;27;20050;-82
2022/01/27 13:05:34;;;;;;;17.80;3.25;;;9.40;99.90;;;;;;5124081;27;20038;-81
2022/01/27 13:08:07;;;;;;;15.23;2.63;;;9.40;99.90;;;;;;5126305;27;20187;-82
2022/01/27 13:10:33;;;;;;;19.85;2.80;;;9.40;99.90;;;;;;5125370;27;20043;-82
2022/01/27 13:13:16;;;;;;;18.75;2.95;;;9.30;99.90;;;;;;5106097;27;20043;-82
2022/01/27 13:15:43;;;;;;;22.33;2.80;;;9.40;99.90;;;;;;5119705;27;20043;-82
2022/01/27 13:18:22;;;;;;;19.85;3.33;;;9.30;99.90;;;;;;5128289;27;20066;-81
2022/01/27 13:20:53;;;;;;;19.45;3.50;;;9.30;99.90;;;;;;5106964;27;20043;-81
2022/01/27 13:26:17;;;;;;;15.10;3.00;;;9.30;99.90;;;;;;5105014;27;20111;-82
2022/01/27 13:28:45;;;;;;;20.25;3.30;;;9.30;99.90;;;;;;5130544;27;20074;-82
2022/01/27 13:31:14;;;;;;;17.13;2.80;;;9.30;99.90;;;;;;5127995;27;20505;-81
2022/01/27 13:33:44;;;;;;;16.65;2.92;;;9.40;99.90;;;;;;5121697;27;20050;-82
2022/01/27 13:36:22;;;;;;;12.95;2.47;;;9.40;99.90;;;;;;5101469;27;20062;-82
2022/01/27 13:39:12;;;;;;;26.85;3.67;;;9.40;99.90;;;;;;5123989;27;20415;-82